Aviation Digital Data Service (ADDS)

Output produced by METARs form (1248 UTC 21 February 2018)
found at http://www.aviationweather.gov/adds/metars/
 
HRYR 211230Z 07015KT 9999 FEW023CB BKN025 24/16 Q1016 NOSIG
TAF HRYR 201100Z 2012/2118 18008KT 9999 FEW023CB SCT025 
     TEMPO 2013/2018 21012KT TS/-TSRA FEW023CB BKN025 FM 202000 32004KT SCT026 
     BECMG 2103/2106 VRB03KT FEW026 SCT100 FM 210900 12005KT SCT025 BKN100 
     TEMPO2111/2117 18010G20KT -TSRA FEW022CB BKN023